Time;durP1;ratioP1;P1;durP2;ratioP2;P2;SDS_P1;SDS_P2;PMS_P1;PMS_P2;Temp;Humidity;BMP_temperature;BMP_pressure;BME280_temperature;BME280_humidity;BME280_pressure;Samples;Min_cycle;Max_cycle;Signal;HPM_P1;HPM_P2
2021/12/22 00:01:26;;;;;;;44.75;19.05;;;;;;;-7.22;100.00;99618.28;4149806;28;20157;-72
2021/12/22 00:03:26;;;;;;;48.47;18.33;;;;;;;-7.18;100.00;99611.41;4150296;28;20072;-72
2021/12/22 00:05:30;;;;;;;50.28;19.05;;;;;;;-7.09;100.00;99607.31;4150611;28;20458;-72
2021/12/22 00:07:30;;;;;;;43.05;17.30;;;;;;;-7.07;100.00;99615.94;4148389;28;20045;-72
2021/12/22 00:09:30;;;;;;;51.40;18.35;;;;;;;-7.06;100.00;99619.44;4149294;28;20060;-72
2021/12/22 00:11:31;;;;;;;42.70;16.23;;;;;;;-6.99;100.00;99622.03;4147809;28;20450;-72
2021/12/22 00:13:31;;;;;;;40.92;16.75;;;;;;;-6.96;100.00;99602.72;4149394;28;20048;-72
2021/12/22 00:15:32;;;;;;;38.97;16.73;;;;;;;-6.90;100.00;99607.16;4148216;28;20037;-72
2021/12/22 00:17:33;;;;;;;32.28;15.30;;;;;;;-6.88;100.00;99608.53;4150020;28;20029;-71
2021/12/22 00:19:33;;;;;;;36.00;17.63;;;;;;;-6.83;100.00;99616.72;4148202;28;20293;-71
2021/12/22 00:21:34;;;;;;;40.10;17.23;;;;;;;-6.82;100.00;99609.47;4148783;28;20041;-72
2021/12/22 00:23:34;;;;;;;41.25;18.95;;;;;;;-6.83;100.00;99614.03;4150723;28;20073;-71
2021/12/22 00:25:34;;;;;;;49.17;20.00;;;;;;;-6.89;100.00;99614.97;4148136;28;20495;-71
2021/12/22 00:27:35;;;;;;;41.40;20.95;;;;;;;-6.86;100.00;99627.97;4147517;28;20475;-72
2021/12/22 00:29:35;;;;;;;52.85;21.50;;;;;;;-6.91;100.00;99622.47;4150238;28;20453;-71
2021/12/22 00:31:43;;;;;;;48.72;20.50;;;;;;;-6.87;100.00;99617.44;4149079;28;20072;-71
2021/12/22 00:33:49;;;;;;;51.05;20.55;;;;;;;-6.89;100.00;99620.38;4147985;28;20439;-71
2021/12/22 00:35:49;;;;;;;50.25;19.98;;;;;;;-6.89;100.00;99620.38;4150774;28;20050;-71
2021/12/22 00:37:50;;;;;;;43.78;19.13;;;;;;;-6.86;100.00;99624.47;4148701;28;20473;-71
2021/12/22 00:39:51;;;;;;;46.10;19.02;;;;;;;-6.90;100.00;99623.28;4150949;28;20891;-72
2021/12/22 00:41:51;;;;;;;43.47;19.88;;;;;;;-6.97;100.00;99627.97;4153122;28;20052;-71
2021/12/22 00:43:52;;;;;;;41.30;19.27;;;;;;;-6.96;100.00;99626.91;4150152;28;20284;-71
2021/12/22 00:45:56;;;;;;;44.50;19.27;;;;;;;-6.95;100.00;99633.94;4152512;28;20045;-71
2021/12/22 00:47:56;;;;;;;47.40;20.20;;;;;;;-6.99;100.00;99628.22;4150584;28;20077;-71
2021/12/22 00:49:59;;;;;;;37.25;17.08;;;;;;;-6.98;100.00;99629.84;4152805;28;20125;-71
2021/12/22 00:51:59;;;;;;;;;;;;;;;-6.96;100.00;99638.50;4152653;28;20049;-71
2021/12/22 00:53:59;;;;;;;33.15;15.38;;;;;;;-6.99;100.00;99627.41;4151898;28;19935;-71
2021/12/22 00:56:00;;;;;;;28.02;14.80;;;;;;;-6.97;100.00;99634.19;4152603;28;20045;-71
2021/12/22 00:58:00;;;;;;;37.75;16.48;;;;;;;-6.96;100.00;99633.13;4151264;28;20069;-71
2021/12/22 01:00:00;;;;;;;40.97;17.95;;;;;;;-6.94;100.00;99631.03;4152957;28;20033;-71
2021/12/22 01:02:03;;;;;;;32.08;16.40;;;;;;;-6.90;100.00;99620.59;4150009;28;20098;-71
2021/12/22 01:04:04;;;;;;;36.58;16.05;;;;;;;-6.90;100.00;99623.28;4152941;28;20082;-71
2021/12/22 01:06:05;;;;;;;38.95;16.90;;;;;;;-6.89;100.00;99623.06;4151610;28;20033;-71
2021/12/22 01:08:05;;;;;;;35.38;16.42;;;;;;;-6.85;100.00;99615.34;4149146;28;20030;-71
2021/12/22 01:10:07;;;;;;;32.45;16.13;;;;;;;-6.89;100.00;99622.25;4152463;28;20395;-71
2021/12/22 01:12:08;;;;;;;33.37;15.77;;;;;;;-6.87;100.00;99620.13;4150586;28;20360;-71
2021/12/22 01:14:08;;;;;;;32.28;15.00;;;;;;;-6.89;100.00;99620.38;4151134;28;20460;-71
2021/12/22 01:16:09;;;;;;;22.40;13.05;;;;;;;-6.94;100.00;99627.53;4152211;28;20052;-71
2021/12/22 01:18:17;;;;;;;28.48;14.77;;;;;;;-7.00;100.00;99629.28;4152334;28;20094;-71
2021/12/22 01:20:27;;;;;;;26.30;13.75;;;;;;;-7.04;100.00;99632.66;4152281;28;20308;-72
2021/12/22 01:22:46;;;;;;;29.30;13.40;;;;;;;-7.05;100.00;99636.41;4152112;28;20050;-72
2021/12/22 01:24:59;;;;;;;24.45;13.80;;;;;;;-7.05;100.00;99641.78;4151034;28;20640;-71
2021/12/22 01:27:04;;;;;;;31.23;15.23;;;;;;;-7.12;100.00;99639.22;4150456;28;20037;-71
2021/12/22 01:29:05;;;;;;;23.08;12.30;;;;;;;-7.15;100.00;99637.81;4146102;28;20674;-71
2021/12/22 01:31:08;;;;;;;25.20;12.45;;;;;;;-7.16;100.00;99640.75;4152457;28;20046;-71
2021/12/22 01:33:08;;;;;;;25.98;12.77;;;;;;;-7.21;100.00;99644.13;4151329;28;20112;-71
2021/12/22 01:35:12;;;;;;;25.58;11.90;;;;;;;-7.29;100.00;99639.09;4152255;28;20434;-71
2021/12/22 01:37:13;;;;;;;25.33;11.27;;;;;;;-7.34;100.00;99648.94;4151130;28;20525;-71
2021/12/22 01:39:13;;;;;;;23.88;10.38;;;;;;;-7.44;100.00;99642.28;4150106;28;20069;-71
2021/12/22 01:41:14;;;;;;;26.08;11.20;;;;;;;-7.52;100.00;99650.69;4150730;28;20068;-71
2021/12/22 01:43:16;;;;;;;22.17;11.60;;;;;;;-7.58;100.00;99642.72;4151108;28;20042;-71
2021/12/22 01:45:36;;;;;;;24.35;12.50;;;;;;;-7.56;100.00;99654.03;4149037;28;20566;-71
2021/12/22 01:50:09;;;;;;;21.00;10.07;;;;;;;-7.52;100.00;99631.84;4149984;28;20374;-72
2021/12/22 01:52:09;;;;;;;22.30;10.25;;;;;;;-7.46;100.00;99632.78;4149715;28;20041;-72
2021/12/22 01:54:39;;;;;;;24.70;10.95;;;;;;;-7.45;100.00;99635.22;4151072;28;20417;-72
2021/12/22 01:56:42;;;;;;;24.13;10.20;;;;;;;-7.45;100.00;99642.47;4150220;28;20050;-72
2021/12/22 01:58:45;;;;;;;24.92;11.20;;;;;;;-7.46;100.00;99646.22;4150857;28;20037;-72
2021/12/22 02:00:46;;;;;;;17.77;10.30;;;;;;;-7.41;100.00;99649.03;4150972;28;20061;-71
2021/12/22 02:02:46;;;;;;;23.30;11.48;;;;;;;-7.40;100.00;99648.00;4150787;28;20407;-71
2021/12/22 02:04:47;;;;;;;27.70;11.43;;;;;;;-7.44;100.00;99644.13;4151142;28;20033;-71
2021/12/22 02:06:48;;;;;;;26.90;10.80;;;;;;;-7.55;100.00;99647.63;4150644;28;20261;-71
2021/12/22 02:08:48;;;;;;;30.88;12.00;;;;;;;-7.56;100.00;99648.66;4151509;28;20132;-71
2021/12/22 02:10:49;;;;;;;24.40;11.15;;;;;;;-7.54;100.00;99652.75;4150472;28;20084;-71
2021/12/22 02:12:53;;;;;;;22.05;10.77;;;;;;;-7.65;100.00;99646.31;4150160;28;20038;-71
2021/12/22 02:14:53;;;;;;;45.55;12.90;;;;;;;-7.71;100.00;99649.91;4151884;28;20045;-71
2021/12/22 02:16:54;;;;;;;28.58;11.30;;;;;;;-7.77;100.00;99652.72;4148425;28;20080;-71
2021/12/22 02:18:56;;;;;;;32.03;11.35;;;;;;;-7.79;100.00;99652.94;4151701;28;20124;-71
2021/12/22 02:20:56;;;;;;;23.92;12.20;;;;;;;-7.85;100.00;99647.69;4151053;28;20038;-72
2021/12/22 02:22:58;;;;;;;17.75;10.10;;;;;;;-7.92;100.00;99653.16;4150221;28;20380;-72
2021/12/22 02:25:04;;;;;;;27.58;10.77;;;;;;;-8.04;100.00;99649.59;4150127;28;20064;-71
2021/12/22 02:27:10;;;;;;;36.55;11.35;;;;;;;-8.00;100.00;99659.66;4150147;28;20073;-71
2021/12/22 02:29:19;;;;;;;31.65;12.00;;;;;;;-8.07;100.00;99645.50;4150819;28;20608;-71
2021/12/22 02:31:20;;;;;;;21.48;9.70;;;;;;;-8.10;100.00;99651.34;4153277;28;20053;-71
2021/12/22 02:33:32;;;;;;;27.38;11.57;;;;;;;-8.17;100.00;99639.88;4150501;28;20111;-71
2021/12/22 02:35:43;;;;;;;23.35;10.32;;;;;;;-8.16;100.00;99646.88;4151467;28;20041;-71
2021/12/22 02:37:45;;;;;;;26.80;12.07;;;;;;;-8.21;100.00;99638.69;4149289;28;20112;-71
2021/12/22 02:39:59;;;;;;;;;;;;;;;-8.23;100.00;99654.19;4152730;28;20041;-71
2021/12/22 02:41:59;;;;;;;22.08;9.82;;;;;;;-8.21;100.00;99646.72;4152557;28;19924;-71
2021/12/22 02:44:00;;;;;;;22.73;10.00;;;;;;;-8.11;100.00;99648.88;4151762;28;20041;-71
2021/12/22 02:46:01;;;;;;;19.33;9.73;;;;;;;-8.06;100.00;99647.13;4137534;28;20049;-71
2021/12/22 02:48:01;;;;;;;17.90;9.93;;;;;;;-7.96;100.00;99639.34;4136126;28;20117;-71
2021/12/22 02:50:04;;;;;;;16.70;10.05;;;;;;;-7.94;100.00;99639.97;4135724;28;20037;-71
2021/12/22 02:52:05;;;;;;;15.05;8.57;;;;;;;-7.95;100.00;99642.84;4134623;28;20468;-71
2021/12/22 02:58:41;;;;;;;24.25;11.55;;;;;;;-8.13;100.00;99640.22;4133192;28;20052;-71
2021/12/22 03:01:00;;;;;;;25.45;12.65;;;;;;;-8.11;100.00;99640.81;4137118;28;20976;-71
2021/12/22 03:03:08;;;;;;;24.98;10.75;;;;;;;-8.15;100.00;99637.78;4135806;28;20052;-71
2021/12/22 03:05:08;;;;;;;19.50;10.45;;;;;;;-8.14;100.00;99642.09;4135837;28;20050;-72
2021/12/22 03:07:13;;;;;;;20.60;11.00;;;;;;;-8.16;100.00;99652.25;4135744;28;20137;-72
2021/12/22 03:09:15;;;;;;;19.40;9.73;;;;;;;-8.16;100.00;99643.38;4136824;28;20133;-72
2021/12/22 03:11:16;;;;;;;25.88;12.20;;;;;;;-8.14;100.00;99649.34;4136567;28;20260;-72
2021/12/22 03:13:16;;;;;;;23.65;11.43;;;;;;;-8.14;100.00;99647.47;4135373;28;20099;-72
2021/12/22 03:15:16;;;;;;;24.95;11.02;;;;;;;-8.18;100.00;99643.59;4135294;28;20048;-72
2021/12/22 03:17:17;;;;;;;21.63;11.05;;;;;;;-8.14;100.00;99649.34;4134730;28;20057;-71
2021/12/22 03:19:20;;;;;;;23.75;11.07;;;;;;;-8.10;100.00;99650.53;4136688;28;20084;-72
2021/12/22 03:21:22;;;;;;;19.30;10.25;;;;;;;-8.12;100.00;99648.03;4134078;28;20137;-71
2021/12/22 03:23:22;;;;;;;22.87;11.37;;;;;;;-8.10;100.00;99651.34;4136041;28;20100;-71
2021/12/22 03:25:26;;;;;;;22.42;10.40;;;;;;;-8.14;100.00;99650.16;4136134;28;20042;-72
2021/12/22 03:27:27;;;;;;;24.88;11.07;;;;;;;-8.09;100.00;99647.59;4135562;28;20410;-72
2021/12/22 03:29:28;;;;;;;19.10;10.38;;;;;;;-8.12;100.00;99653.41;4136802;28;20448;-72
2021/12/22 03:31:28;;;;;;;19.98;10.48;;;;;;;-8.17;100.00;99645.25;4133523;28;20061;-71
2021/12/22 03:33:29;;;;;;;22.52;10.10;;;;;;;-8.18;100.00;99643.59;4136094;28;20041;-71
2021/12/22 03:35:30;;;;;;;19.50;10.50;;;;;;;-8.16;100.00;99654.13;4132535;28;20057;-71
2021/12/22 03:37:30;;;;;;;26.13;10.27;;;;;;;-8.27;100.00;99650.34;4134969;28;20464;-72
2021/12/22 03:39:32;;;;;;;23.17;10.82;;;;;;;-8.44;100.00;99644.78;4135130;28;20042;-72
2021/12/22 03:41:35;;;;;;;25.33;11.93;;;;;;;-8.45;100.00;99658.44;4135446;28;20248;-71
2021/12/22 03:43:35;;;;;;;;;;;;;;;-8.45;100.00;99653.06;4136227;28;20459;-72
2021/12/22 03:45:36;;;;;;;22.13;10.68;;;;;;;-8.44;100.00;99649.34;4135581;28;19975;-72
2021/12/22 03:47:36;;;;;;;25.25;11.13;;;;;;;-8.39;100.00;99658.34;4135679;28;20097;-71
2021/12/22 03:49:36;;;;;;;23.63;10.85;;;;;;;-8.42;100.00;99652.63;4135289;28;20508;-71
2021/12/22 03:51:37;;;;;;;22.20;9.75;;;;;;;-8.48;100.00;99654.34;4135460;28;20054;-71
2021/12/22 03:53:38;;;;;;;23.48;11.65;;;;;;;-8.53;100.00;99655.00;4136343;28;20495;-71
2021/12/22 03:55:38;;;;;;;23.10;10.70;;;;;;;-8.64;100.00;99649.59;4135737;28;20050;-71
2021/12/22 03:57:38;;;;;;;19.60;9.70;;;;;;;-8.76;100.00;99654.09;4135017;28;20307;-71
2021/12/22 03:59:39;;;;;;;17.92;10.27;;;;;;;-8.89;100.00;99645.13;4134902;28;20053;-71
2021/12/22 04:01:39;;;;;;;22.67;10.02;;;;;;;-9.01;100.00;99651.47;4135655;28;20264;-71
2021/12/22 04:03:42;;;;;;;17.38;9.23;;;;;;;-9.08;100.00;99648.84;4135476;28;20103;-71
2021/12/22 04:05:45;;;;;;;18.27;8.80;;;;;;;-9.11;100.00;99657.31;4135449;28;20041;-71
2021/12/22 04:07:45;;;;;;;22.83;10.55;;;;;;;-8.98;100.00;99646.47;4133223;28;20232;-71
2021/12/22 04:09:46;;;;;;;21.45;10.57;;;;;;;-9.02;100.00;99649.78;4133041;28;20751;-71
2021/12/22 04:11:46;;;;;;;23.48;11.45;;;;;;;-9.03;100.00;99656.22;4135795;28;20049;-71
2021/12/22 04:13:46;;;;;;;19.50;9.80;;;;;;;-9.06;100.00;99654.78;4134731;28;20543;-71
2021/12/22 04:15:48;;;;;;;26.80;11.60;;;;;;;-9.10;100.00;99645.53;4137629;28;20715;-71
2021/12/22 04:17:48;;;;;;;32.53;16.40;;;;;;;-9.12;100.00;99648.44;4138288;28;20052;-72
2021/12/22 04:19:48;;;;;;;27.05;14.98;;;;;;;-9.11;100.00;99658.13;4138373;28;20053;-72
2021/12/22 04:21:50;;;;;;;22.33;10.85;;;;;;;-9.04;100.00;99658.06;4137966;28;20065;-72
2021/12/22 04:23:50;;;;;;;17.52;10.43;;;;;;;-8.98;100.00;99651.00;4137689;28;20050;-72
2021/12/22 04:25:50;;;;;;;18.50;10.18;;;;;;;-8.95;100.00;99651.38;4139256;28;20411;-72
2021/12/22 04:28:02;;;;;;;19.13;11.40;;;;;;;-8.95;100.00;99646.00;4138502;28;20038;-72
2021/12/22 04:30:06;;;;;;;17.33;9.80;;;;;;;-8.90;100.00;99648.03;4137858;28;20053;-71
2021/12/22 04:32:07;;;;;;;20.00;9.90;;;;;;;-8.87;100.00;99642.22;4138380;28;20440;-71
2021/12/22 04:34:08;;;;;;;19.40;9.98;;;;;;;-8.86;100.00;99638.47;4137656;28;20113;-72
2021/12/22 04:36:08;;;;;;;15.73;9.15;;;;;;;-8.84;100.00;99636.41;4138727;28;20038;-71
2021/12/22 04:38:09;;;;;;;20.80;9.55;;;;;;;-8.73;100.00;99621.44;4137888;28;20059;-71
2021/12/22 04:40:10;;;;;;;23.75;10.10;;;;;;;-8.61;100.00;99628.47;4138462;28;20032;-71
2021/12/22 04:42:11;;;;;;;15.48;8.35;;;;;;;-8.57;100.00;99627.00;4138010;28;20296;-71
2021/12/22 04:44:11;;;;;;;18.75;9.77;;;;;;;-8.38;100.00;99632.34;4139356;28;20030;-71
2021/12/22 04:46:11;;;;;;;19.05;10.40;;;;;;;-8.25;100.00;99635.63;4138424;28;20061;-71
2021/12/22 04:48:12;;;;;;;16.95;8.35;;;;;;;-8.26;100.00;99623.25;4136600;28;20479;-71
2021/12/22 04:50:17;;;;;;;17.38;10.00;;;;;;;-8.15;100.00;99628.91;4138212;28;20444;-71
2021/12/22 04:52:20;;;;;;;14.60;7.80;;;;;;;-8.14;100.00;99634.03;4137100;28;20685;-71
2021/12/22 04:56:27;;;;;;;17.80;8.60;;;;;;;-8.04;100.00;99626.25;4137579;28;20451;-71
2021/12/22 04:58:27;;;;;;;21.23;9.73;;;;;;;-8.00;100.00;99621.25;4137502;28;20046;-71
2021/12/22 05:00:31;;;;;;;15.00;8.02;;;;;;;-7.97;100.00;99626.97;4137675;28;20168;-71
2021/12/22 05:02:31;;;;;;;16.13;8.85;;;;;;;-7.90;100.00;99626.06;4135630;28;20077;-71
2021/12/22 05:04:31;;;;;;;19.02;10.10;;;;;;;-7.89;100.00;99612.38;4136334;28;20542;-71
2021/12/22 05:06:34;;;;;;;19.90;9.48;;;;;;;-7.79;100.00;99620.69;4136603;28;20164;-71
2021/12/22 05:08:34;;;;;;;22.48;9.98;;;;;;;-7.79;100.00;99617.19;4137448;28;20048;-71
2021/12/22 05:10:35;;;;;;;23.13;10.23;;;;;;;-7.75;100.00;99615.69;4138623;28;20085;-72
2021/12/22 05:12:35;;;;;;;21.92;10.60;;;;;;;-7.75;100.00;99616.50;4135918;28;20694;-72
2021/12/22 05:14:35;;;;;;;24.90;10.18;;;;;;;-7.76;100.00;99612.19;4137293;28;20148;-72
2021/12/22 05:16:44;;;;;;;23.55;10.25;;;;;;;-7.69;100.00;99606.72;4135666;28;20042;-72
2021/12/22 05:18:58;;;;;;;24.20;11.60;;;;;;;-7.61;100.00;99608.22;4137947;28;20097;-72
2021/12/22 05:20:58;;;;;;;25.65;12.52;;;;;;;-7.64;100.00;99604.94;4137119;28;20057;-71
2021/12/22 05:22:58;;;;;;;25.02;10.70;;;;;;;-7.60;100.00;99602.63;4135541;28;20054;-72
2021/12/22 05:24:59;;;;;;;23.33;10.55;;;;;;;-7.63;100.00;99603.91;4133990;28;20394;-72
2021/12/22 05:26:59;;;;;;;26.55;11.50;;;;;;;-7.62;100.00;99604.72;4131139;28;20149;-72
2021/12/22 05:29:00;;;;;;;23.35;10.40;;;;;;;-7.58;100.00;99608.59;4133969;28;20057;-71
2021/12/22 05:31:00;;;;;;;22.75;9.80;;;;;;;-7.56;100.00;99603.78;4135473;28;20041;-71
2021/12/22 05:33:01;;;;;;;20.90;10.95;;;;;;;-7.53;100.00;99603.34;4133892;28;20041;-71
2021/12/22 05:35:04;;;;;;;25.73;10.43;;;;;;;-7.44;100.00;99603.81;4135331;28;20570;-71
2021/12/22 05:37:04;;;;;;;24.00;10.50;;;;;;;-7.42;100.00;99599.84;4135098;28;20050;-71
2021/12/22 05:39:05;;;;;;;24.10;10.15;;;;;;;-7.37;100.00;99607.19;4134279;28;20108;-71
2021/12/22 05:41:05;;;;;;;24.23;10.88;;;;;;;-7.35;100.00;99610.47;4134264;28;20177;-71
2021/12/22 05:43:06;;;;;;;17.15;9.40;;;;;;;-7.35;100.00;99605.09;4135595;28;20069;-71
2021/12/22 05:45:06;;;;;;;20.75;9.73;;;;;;;-7.33;100.00;99611.06;4133631;28;20591;-71
2021/12/22 05:47:07;;;;;;;24.42;10.55;;;;;;;-7.34;100.00;99609.41;4133370;28;20738;-71
2021/12/22 05:49:07;;;;;;;25.45;11.27;;;;;;;-7.29;100.00;99608.69;4134986;28;20069;-71
2021/12/22 05:51:07;;;;;;;26.80;11.80;;;;;;;-7.30;100.00;99617.81;4132383;28;20053;-72
2021/12/22 05:53:08;;;;;;;36.58;14.48;;;;;;;-7.30;100.00;99615.13;4135131;28;20060;-72
2021/12/22 05:55:08;;;;;;;27.55;13.27;;;;;;;-7.31;100.00;99611.63;4132562;28;20054;-71
2021/12/22 05:57:09;;;;;;;28.13;11.80;;;;;;;-7.28;100.00;99613.03;4159584;28;20418;-71
2021/12/22 05:59:09;;;;;;;67.78;26.33;;;;;;;-7.27;100.00;99620.88;4150202;28;20330;-71
2021/12/22 06:01:09;;;;;;;43.50;17.73;;;;;;;-7.25;100.00;99609.88;4151904;28;20528;-71
2021/12/22 06:03:10;;;;;;;28.52;12.98;;;;;;;-7.21;100.00;99613.72;4150796;28;20115;-71
2021/12/22 06:05:11;;;;;;;31.02;12.00;;;;;;;-7.19;100.00;99619.72;4149490;28;20053;-72
2021/12/22 06:07:11;;;;;;;33.05;11.23;;;;;;;-7.16;100.00;99609.28;4150810;28;20045;-72
2021/12/22 06:09:11;;;;;;;23.50;11.48;;;;;;;-7.17;100.00;99606.84;4150442;28;20081;-72
2021/12/22 06:11:12;;;;;;;17.63;8.55;;;;;;;-7.16;100.00;99616.53;4150590;28;20061;-72
2021/12/22 06:13:12;;;;;;;21.65;8.27;;;;;;;-7.17;100.00;99618.41;4152675;28;20048;-71
2021/12/22 06:15:12;;;;;;;23.13;9.48;;;;;;;-7.15;100.00;99616.31;4153526;28;20049;-71
2021/12/22 06:17:13;;;;;;;22.42;8.77;;;;;;;-7.14;100.00;99615.25;4153001;28;20103;-71
2021/12/22 06:19:15;;;;;;;18.70;8.48;;;;;;;-7.12;100.00;99621.19;4152674;28;20045;-71
2021/12/22 06:21:15;;;;;;;19.67;8.82;;;;;;;-7.11;100.00;99619.34;4153664;28;20438;-71
2021/12/22 06:23:16;;;;;;;24.33;9.02;;;;;;;-7.11;100.00;99624.75;4151716;28;20341;-71
2021/12/22 06:25:16;;;;;;;20.17;10.40;;;;;;;-7.08;100.00;99622.38;4152334;28;20041;-71
2021/12/22 06:27:17;;;;;;;29.08;11.05;;;;;;;-7.05;100.00;99620.28;4151865;28;20110;-71
2021/12/22 06:29:17;;;;;;;27.63;10.00;;;;;;;-7.01;100.00;99624.97;4152176;28;20042;-71
2021/12/22 06:31:18;;;;;;;22.13;9.02;;;;;;;-6.97;100.00;99625.28;4150925;28;20053;-71
2021/12/22 06:33:18;;;;;;;19.27;9.18;;;;;;;-7.01;100.00;99622.25;4150835;28;20049;-71
2021/12/22 06:35:19;;;;;;;23.50;9.57;;;;;;;-6.98;100.00;99631.72;4151085;28;20330;-71
2021/12/22 06:37:19;;;;;;;14.43;7.13;;;;;;;-6.99;100.00;99640.84;4148639;28;20050;-71
2021/12/22 06:39:20;;;;;;;19.77;8.93;;;;;;;-7.01;100.00;99635.72;4150582;28;20458;-71
2021/12/22 06:41:20;;;;;;;18.55;8.77;;;;;;;-6.97;100.00;99644.13;4152250;28;20148;-71
2021/12/22 06:43:21;;;;;;;19.30;9.57;;;;;;;-6.99;100.00;99636.28;4153233;28;20111;-71
2021/12/22 06:45:22;;;;;;;14.50;7.35;;;;;;;-7.03;100.00;99643.22;4152449;28;20089;-71
2021/12/22 06:47:22;;;;;;;26.95;8.65;;;;;;;-7.08;100.00;99648.47;4151828;28;20049;-71
2021/12/22 06:49:23;;;;;;;21.17;9.35;;;;;;;-7.04;100.00;99659.56;4153363;28;20410;-71
2021/12/22 06:51:24;;;;;;;18.67;8.88;;;;;;;-7.08;100.00;99659.22;4151909;28;20163;-71
2021/12/22 06:53:24;;;;;;;20.17;8.40;;;;;;;-7.13;100.00;99654.53;4152118;28;20479;-71
2021/12/22 06:55:25;;;;;;;18.55;8.20;;;;;;;-7.10;100.00;99662.16;4153469;28;20081;-71
2021/12/22 06:57:26;;;;;;;29.17;8.88;;;;;;;-7.05;100.00;99658.75;4151943;28;20041;-71
2021/12/22 06:59:26;;;;;;;39.53;8.35;;;;;;;-7.07;100.00;99655.47;4152117;28;20038;-71
2021/12/22 07:01:31;;;;;;;19.02;7.90;;;;;;;-7.11;100.00;99660.53;4151621;28;20446;-71
2021/12/22 07:03:31;;;;;;;18.77;8.20;;;;;;;-7.07;100.00;99666.25;4153548;28;20115;-71
2021/12/22 07:05:32;;;;;;;17.58;9.20;;;;;;;-7.11;100.00;99665.91;4152708;28;20041;-71
2021/12/22 07:07:32;;;;;;;45.80;9.88;;;;;;;-7.17;100.00;99655.25;4151634;28;20053;-71
2021/12/22 07:09:33;;;;;;;18.30;8.27;;;;;;;-7.18;100.00;99667.88;4152901;28;20452;-71
2021/12/22 07:11:35;;;;;;;19.90;9.68;;;;;;;-7.18;100.00;99669.75;4152792;28;20084;-71
2021/12/22 07:13:36;;;;;;;20.27;8.48;;;;;;;-7.20;100.00;99671.84;4151548;28;20049;-71
2021/12/22 07:15:38;;;;;;;23.23;11.50;;;;;;;-7.23;100.00;99669.63;4151651;28;20053;-71
2021/12/22 07:17:39;;;;;;;45.80;14.60;;;;;;;-7.23;100.00;99670.44;4150707;28;20336;-71
2021/12/22 07:19:39;;;;;;;35.97;15.20;;;;;;;-7.23;100.00;99670.44;4152578;28;20962;-71
2021/12/22 07:21:39;;;;;;;34.58;13.13;;;;;;;-7.23;100.00;99664.25;4153019;28;20056;-71
2021/12/22 07:23:40;;;;;;;26.25;11.40;;;;;;;-7.21;100.00;99664.81;4150841;28;20049;-71
2021/12/22 07:25:40;;;;;;;23.38;10.95;;;;;;;-7.23;100.00;99673.13;4151239;28;20431;-71
2021/12/22 07:27:40;;;;;;;24.20;11.05;;;;;;;-7.20;100.00;99674.53;4152064;28;20399;-71
2021/12/22 07:29:41;;;;;;;18.27;9.88;;;;;;;-7.21;100.00;99673.72;4150684;28;20053;-71
2021/12/22 07:31:42;;;;;;;19.98;10.00;;;;;;;-7.24;100.00;99663.44;4151021;28;20092;-71
2021/12/22 07:33:59;;;;;;;18.63;8.57;;;;;;;-7.23;100.00;99667.75;4152215;28;20458;-71
2021/12/22 07:36:03;;;;;;;18.38;9.02;;;;;;;-7.23;100.00;99656.19;4152209;28;20076;-71
2021/12/22 07:38:26;;;;;;;19.85;9.60;;;;;;;-7.15;100.00;99662.03;4150446;28;20128;-71
2021/12/22 07:40:26;;;;;;;15.02;7.78;;;;;;;-7.19;100.00;99666.25;4150528;28;20037;-71
2021/12/22 07:42:26;;;;;;;21.65;7.95;;;;;;;-7.20;100.00;99664.63;4152477;28;20384;-71
2021/12/22 07:44:27;;;;;;;17.88;8.65;;;;;;;-7.19;100.00;99665.44;4151618;28;20080;-71
2021/12/22 07:46:27;;;;;;;17.17;7.88;;;;;;;-7.19;100.00;99655.50;4151648;28;20048;-71
2021/12/22 07:48:28;;;;;;;17.25;8.35;;;;;;;-7.16;100.00;99655.00;4152187;28;20458;-71
2021/12/22 07:50:28;;;;;;;22.48;9.90;;;;;;;-7.16;100.00;99659.56;4153951;28;20614;-71
2021/12/22 07:52:30;;;;;;;17.17;8.02;;;;;;;-7.18;100.00;99659.00;4154482;28;20053;-71
2021/12/22 07:54:30;;;;;;;20.58;9.10;;;;;;;-7.23;100.00;99658.88;4154937;28;20228;-71
2021/12/22 07:56:30;;;;;;;16.40;8.07;;;;;;;-7.28;100.00;99645.28;4154764;28;20787;-71
2021/12/22 07:58:30;;;;;;;17.75;9.40;;;;;;;-7.31;100.00;99656.53;4155332;28;20049;-71
2021/12/22 08:00:31;;;;;;;23.63;8.93;;;;;;;-7.33;100.00;99662.16;4155672;28;20051;-71
2021/12/22 08:02:31;;;;;;;26.08;10.50;;;;;;;-7.36;100.00;99652.69;4155710;28;20044;-71
2021/12/22 08:04:31;;;;;;;36.70;9.40;;;;;;;-7.36;100.00;99663.44;4154154;28;20068;-71
2021/12/22 08:06:32;;;;;;;15.88;7.32;;;;;;;-7.37;100.00;99661.78;4153622;28;20128;-71
2021/12/22 08:08:32;;;;;;;20.20;7.57;;;;;;;-7.37;100.00;99659.09;4155197;28;20502;-71
2021/12/22 08:10:33;;;;;;;20.52;8.30;;;;;;;-7.35;100.00;99656.19;4155187;28;20428;-70
2021/12/22 08:12:34;;;;;;;19.98;8.00;;;;;;;-7.37;100.00;99653.69;4155398;28;20041;-71
2021/12/22 08:14:38;;;;;;;13.50;6.60;;;;;;;-7.34;100.00;99665.06;4154346;28;20542;-71
2021/12/22 08:16:38;;;;;;;19.10;8.43;;;;;;;-7.30;100.00;99658.97;4154277;28;20083;-70
2021/12/22 08:18:38;;;;;;;20.80;8.55;;;;;;;-7.28;100.00;99654.22;4153780;28;20053;-70
2021/12/22 08:20:39;;;;;;;15.15;8.43;;;;;;;-7.29;100.00;99655.22;4153920;28;20045;-71
2021/12/22 08:22:40;;;;;;;28.45;10.52;;;;;;;-7.28;100.00;99653.38;4155167;28;20418;-71
2021/12/22 08:24:40;;;;;;;19.48;9.13;;;;;;;-7.27;100.00;99660.41;4155086;28;20053;-71
2021/12/22 08:26:41;;;;;;;27.63;9.07;;;;;;;-7.32;100.00;99660.28;4154681;28;20048;-71
2021/12/22 08:28:41;;;;;;;29.52;12.10;;;;;;;-7.40;100.00;99658.75;4155095;28;20463;-71
2021/12/22 08:30:42;;;;;;;24.63;9.43;;;;;;;-7.42;100.00;99667.03;4154540;28;20565;-71
2021/12/22 08:32:43;;;;;;;27.45;8.68;;;;;;;-7.43;100.00;99656.53;4154475;28;20045;-71
2021/12/22 08:34:46;;;;;;;18.17;8.23;;;;;;;-7.41;100.00;99665.19;4154878;28;20393;-71
2021/12/22 08:39:05;;;;;;;17.15;7.30;;;;;;;-7.40;100.00;99662.25;4153656;28;20144;-71
2021/12/22 08:41:06;;;;;;;13.60;8.38;;;;;;;-7.38;100.00;99653.94;4154346;28;20550;-71
2021/12/22 08:43:06;;;;;;;17.23;8.18;;;;;;;-7.33;100.00;99651.38;4155699;28;20175;-71
2021/12/22 08:45:07;;;;;;;25.13;11.55;;;;;;;-7.35;100.00;99658.88;4154287;28;20470;-71
2021/12/22 08:47:08;;;;;;;29.45;12.93;;;;;;;-7.32;100.00;99660.28;4153760;28;20048;-71
2021/12/22 08:49:09;;;;;;;20.30;9.70;;;;;;;-7.28;100.00;99656.06;4154897;28;20057;-71
2021/12/22 08:51:10;;;;;;;17.70;8.70;;;;;;;-7.24;100.00;99663.44;4154090;28;20193;-71
2021/12/22 08:53:10;;;;;;;14.68;6.90;;;;;;;-7.23;100.00;99670.44;4154223;28;20343;-71
2021/12/22 08:55:10;;;;;;;22.85;9.52;;;;;;;-7.21;100.00;99662.13;4153583;28;20449;-71
2021/12/22 08:57:11;;;;;;;19.00;10.38;;;;;;;-7.20;100.00;99667.31;4154964;28;20103;-71
2021/12/22 08:59:13;;;;;;;28.20;12.45;;;;;;;-7.13;100.00;99662.59;4153741;28;20049;-71
2021/12/22 09:01:13;;;;;;;21.87;9.70;;;;;;;-7.11;100.00;99655.16;4152766;28;20177;-71
2021/12/22 09:03:14;;;;;;;39.63;14.77;;;;;;;-7.02;100.00;99657.47;4154695;28;20529;-71
2021/12/22 09:05:14;;;;;;;44.60;16.95;;;;;;;-7.00;100.00;99661.56;4153224;28;20049;-71
2021/12/22 09:07:14;;;;;;;25.08;10.95;;;;;;;-7.03;100.00;99653.13;4153340;28;20108;-71
2021/12/22 09:09:19;;;;;;;22.52;9.70;;;;;;;-7.08;100.00;99653.84;4153099;28;20045;-70
2021/12/22 09:11:20;;;;;;;22.50;10.75;;;;;;;-7.10;100.00;99654.09;4153909;28;20081;-70
2021/12/22 09:13:20;;;;;;;22.10;10.15;;;;;;;-7.13;100.00;99648.34;4154759;28;20107;-71
2021/12/22 09:15:21;;;;;;;26.08;10.60;;;;;;;-7.05;100.00;99653.38;4154718;28;20050;-71
2021/12/22 09:17:21;;;;;;;13.30;7.80;;;;;;;-7.02;100.00;99647.53;4154007;28;20061;-70
2021/12/22 09:19:23;;;;;;;27.73;8.95;;;;;;;-7.05;100.00;99652.56;4153656;28;20481;-71
2021/12/22 09:21:23;;;;;;;15.53;7.20;;;;;;;-7.06;100.00;99657.13;4154102;28;20107;-71
2021/12/22 09:23:24;;;;;;;14.18;7.57;;;;;;;-7.11;100.00;99647.06;4154026;28;20049;-71
2021/12/22 09:25:24;;;;;;;22.90;9.05;;;;;;;-7.03;100.00;99653.97;4154175;28;20141;-71
2021/12/22 09:27:24;;;;;;;20.05;9.27;;;;;;;-7.04;100.00;99633.47;4153922;28;20076;-71